Time;durP1;ratioP1;P1;durP2;ratioP2;P2;SDS_P1;SDS_P2;PMS_P1;PMS_P2;Temp;Humidity;BMP_temperature;BMP_pressure;BME280_temperature;BME280_humidity;BME280_pressure;Samples;Min_cycle;Max_cycle;Signal;HPM_P1;HPM_P2
2023/07/18 00:02:08;;;;;;;3.70;2.23;;;11.90;99.90;;;;;;5044192;28;20308;-80
2023/07/18 00:04:35;;;;;;;5.13;2.50;;;11.90;99.90;;;;;;5065903;28;20429;-81
2023/07/18 00:07:01;;;;;;;5.83;2.20;;;11.90;99.90;;;;;;5045821;28;20223;-83
2023/07/18 00:09:28;;;;;;;5.53;2.53;;;11.80;99.90;;;;;;5046838;28;20281;-82
2023/07/18 00:11:57;;;;;;;6.23;2.30;;;11.80;99.90;;;;;;5044656;28;20227;-82
2023/07/18 00:14:24;;;;;;;2.87;2.10;;;11.80;99.90;;;;;;5066091;28;20232;-81
2023/07/18 00:16:51;;;;;;;5.23;2.60;;;11.80;99.90;;;;;;5049060;28;20226;-80
2023/07/18 00:19:19;;;;;;;3.03;2.07;;;11.80;99.90;;;;;;5065672;28;20252;-82
2023/07/18 00:21:47;;;;;;;3.60;2.27;;;11.80;99.90;;;;;;5049877;28;20221;-82
2023/07/18 00:24:15;;;;;;;5.77;2.70;;;11.70;99.90;;;;;;5065622;28;20216;-84
2023/07/18 00:26:42;;;;;;;3.97;2.60;;;11.70;99.90;;;;;;5068762;28;20644;-82
2023/07/18 00:29:10;;;;;;;4.90;2.30;;;11.70;99.90;;;;;;5062155;28;20256;-82
2023/07/18 00:31:37;;;;;;;7.13;2.30;;;11.70;99.90;;;;;;5060870;28;20225;-83
2023/07/18 00:34:06;;;;;;;6.07;2.30;;;11.70;99.90;;;;;;5070179;28;20224;-83
2023/07/18 00:36:32;;;;;;;4.20;2.20;;;11.70;99.90;;;;;;5070296;28;20721;-81
2023/07/18 00:38:59;;;;;;;6.10;2.23;;;11.70;99.90;;;;;;5068556;28;20277;-82
2023/07/18 00:41:26;;;;;;;3.67;2.37;;;11.60;99.90;;;;;;5067602;28;20243;-83
2023/07/18 00:43:53;;;;;;;5.07;2.40;;;11.60;99.90;;;;;;5067669;28;20258;-86
2023/07/18 00:46:22;;;;;;;7.07;2.83;;;11.50;99.90;;;;;;5066436;28;20330;-81
2023/07/18 00:48:49;;;;;;;5.33;2.40;;;11.50;99.90;;;;;;5065662;28;20213;-81
2023/07/18 00:51:16;;;;;;;5.30;2.33;;;11.50;99.90;;;;;;5045710;28;20316;-81
2023/07/18 00:53:44;;;;;;;6.10;2.67;;;11.40;99.90;;;;;;5069309;28;20243;-84
2023/07/18 00:56:12;;;;;;;3.13;2.10;;;11.40;99.90;;;;;;5048603;28;20682;-81
2023/07/18 00:58:40;;;;;;;3.20;2.23;;;11.30;99.90;;;;;;5051264;28;20235;-82
2023/07/18 01:01:07;;;;;;;5.20;2.50;;;11.30;99.90;;;;;;5064988;28;20530;-83
2023/07/18 01:03:37;;;;;;;5.53;2.43;;;11.30;99.90;;;;;;5065787;28;20231;-82
2023/07/18 01:06:04;;;;;;;4.33;2.37;;;11.30;99.90;;;;;;5064707;28;20230;-82
2023/07/18 01:08:31;;;;;;;4.47;2.40;;;11.20;99.90;;;;;;5069942;28;20226;-85
2023/07/18 01:10:58;;;;;;;3.83;2.30;;;11.20;99.90;;;;;;5066349;28;20223;-82
2023/07/18 01:13:25;;;;;;;5.50;2.37;;;11.20;99.90;;;;;;5066155;28;20234;-84
2023/07/18 01:15:51;;;;;;;3.77;2.53;;;11.20;99.90;;;;;;5068273;28;20252;-82
2023/07/18 01:18:18;;;;;;;4.57;2.53;;;11.20;99.90;;;;;;5066002;28;20319;-82
2023/07/18 01:20:48;;;;;;;4.10;2.63;;;11.20;99.90;;;;;;5068059;28;20256;-81
2023/07/18 01:23:16;;;;;;;4.77;2.60;;;11.10;99.90;;;;;;5060089;28;20223;-82
2023/07/18 01:25:43;;;;;;;4.63;2.47;;;11.10;99.90;;;;;;5048360;28;20310;-81
2023/07/18 01:28:10;;;;;;;4.33;2.70;;;11.10;99.90;;;;;;5063347;28;20296;-82
2023/07/18 01:30:37;;;;;;;5.47;3.27;;;11.10;99.90;;;;;;5047248;28;20216;-81
2023/07/18 01:33:04;;;;;;;5.73;3.10;;;11.10;99.90;;;;;;5046798;28;20229;-81
2023/07/18 01:35:31;;;;;;;3.90;3.13;;;11.10;99.90;;;;;;5050453;28;20243;-81
2023/07/18 01:37:58;;;;;;;4.60;3.00;;;11.10;99.90;;;;;;5060486;28;20232;-80
2023/07/18 01:40:26;;;;;;;3.57;3.17;;;11.10;99.90;;;;;;5061454;28;20235;-83
2023/07/18 01:42:55;;;;;;;5.27;3.00;;;11.10;99.90;;;;;;5047050;28;20315;-81
2023/07/18 01:45:23;;;;;;;6.07;3.47;;;11.00;99.90;;;;;;5043015;28;20232;-82
2023/07/18 01:47:51;;;;;;;5.40;3.10;;;11.00;99.90;;;;;;5058630;28;20433;-80
2023/07/18 01:50:19;;;;;;;6.60;3.27;;;11.00;99.90;;;;;;5050763;28;20278;-81
2023/07/18 01:52:46;;;;;;;6.13;3.33;;;11.00;99.90;;;;;;5061250;28;20618;-81
2023/07/18 01:55:13;;;;;;;6.70;3.27;;;11.00;99.90;;;;;;5044493;28;20793;-80
2023/07/18 01:57:46;;;;;;;4.97;3.90;;;11.00;99.90;;;;;;5048365;28;20224;-82
2023/07/18 02:00:19;;;;;;;7.07;3.93;;;11.00;99.90;;;;;;5063087;28;20221;-81
2023/07/18 02:02:48;;;;;;;5.67;4.30;;;11.00;99.90;;;;;;5068293;28;20226;-80
2023/07/18 02:05:19;;;;;;;5.53;4.00;;;11.00;99.90;;;;;;5046811;28;20227;-80
2023/07/18 02:07:47;;;;;;;5.33;3.90;;;11.00;99.90;;;;;;5062160;28;20248;-81
2023/07/18 02:10:15;;;;;;;8.13;4.07;;;11.00;99.90;;;;;;5061820;28;20264;-81
2023/07/18 02:12:43;;;;;;;7.20;3.87;;;11.00;99.90;;;;;;5050352;28;20611;-81
2023/07/18 02:15:13;;;;;;;11.20;5.63;;;11.00;99.90;;;;;;5067801;28;20236;-80
2023/07/18 02:17:40;;;;;;;7.40;4.63;;;11.00;99.90;;;;;;5065512;28;20231;-82
2023/07/18 02:20:09;;;;;;;7.93;5.10;;;11.00;99.90;;;;;;5066015;28;20323;-81
2023/07/18 02:22:37;;;;;;;8.27;5.23;;;11.00;99.90;;;;;;5069653;28;20340;-81
2023/07/18 02:25:04;;;;;;;7.97;5.37;;;11.00;99.90;;;;;;5051614;28;20230;-81
2023/07/18 02:27:34;;;;;;;7.17;4.73;;;11.00;99.90;;;;;;5067296;28;20642;-80
2023/07/18 02:30:03;;;;;;;7.93;5.20;;;11.00;99.90;;;;;;5065225;28;20828;-80
2023/07/18 02:32:31;;;;;;;7.80;4.60;;;11.00;99.90;;;;;;5064148;28;20249;-82
2023/07/18 02:34:58;;;;;;;6.73;4.90;;;10.90;99.90;;;;;;5065088;28;20778;-81
2023/07/18 02:37:26;;;;;;;8.43;5.53;;;10.90;99.90;;;;;;5075181;28;20330;-79
2023/07/18 02:39:53;;;;;;;8.50;5.67;;;10.90;99.90;;;;;;5045155;28;20229;-81
2023/07/18 02:42:19;;;;;;;8.73;5.40;;;10.90;99.90;;;;;;5067706;28;20229;-82
2023/07/18 02:44:46;;;;;;;11.77;6.50;;;10.90;99.90;;;;;;5065859;28;20297;-80
2023/07/18 02:47:15;;;;;;;9.37;7.30;;;10.90;99.90;;;;;;5065022;23;20240;-82
2023/07/18 02:49:42;;;;;;;12.37;6.37;;;10.90;99.90;;;;;;5054395;28;20222;-82
2023/07/18 02:52:09;;;;;;;10.13;6.00;;;10.90;99.90;;;;;;5050687;28;20258;-82
2023/07/18 02:54:36;;;;;;;10.67;6.43;;;10.90;99.90;;;;;;5067133;28;20237;-82
2023/07/18 02:57:02;;;;;;;8.53;6.47;;;10.90;99.90;;;;;;5068934;28;20330;-81
2023/07/18 02:59:29;;;;;;;8.57;6.17;;;10.90;99.90;;;;;;5049448;28;20283;-81
2023/07/18 03:01:57;;;;;;;10.57;6.13;;;10.90;99.90;;;;;;5067134;28;20230;-81
2023/07/18 03:04:26;;;;;;;9.07;6.37;;;10.90;99.90;;;;;;5052666;28;22500;-80
2023/07/18 03:06:54;;;;;;;9.13;6.50;;;11.00;99.90;;;;;;5061304;28;20750;-81
2023/07/18 03:09:22;;;;;;;13.87;6.87;;;11.00;99.90;;;;;;5066665;28;20652;-80
2023/07/18 03:11:50;;;;;;;12.50;6.23;;;11.00;99.90;;;;;;5089321;28;20232;-80
2023/07/18 03:14:17;;;;;;;9.27;6.23;;;10.90;99.90;;;;;;5071308;28;20588;-81
2023/07/18 03:16:45;;;;;;;9.17;6.20;;;11.00;99.90;;;;;;5075584;28;20616;-80
2023/07/18 03:19:12;;;;;;;9.67;6.73;;;10.90;99.90;;;;;;5068942;28;20233;-80
2023/07/18 03:21:41;;;;;;;12.57;7.37;;;10.90;99.90;;;;;;5091784;28;20231;-81
2023/07/18 03:24:07;;;;;;;12.00;6.73;;;10.90;99.90;;;;;;5062403;28;20224;-81
2023/07/18 03:26:37;;;;;;;10.93;7.17;;;10.90;99.90;;;;;;5076668;28;20225;-82
2023/07/18 03:29:05;;;;;;;10.47;7.37;;;10.90;99.90;;;;;;5072755;28;20218;-83
2023/07/18 03:31:32;;;;;;;11.27;7.17;;;10.90;99.90;;;;;;5078938;28;20721;-82
2023/07/18 03:34:00;;;;;;;16.23;7.60;;;10.90;99.90;;;;;;5091018;28;20220;-81
2023/07/18 03:36:27;;;;;;;10.30;7.47;;;11.00;99.90;;;;;;5085046;28;20223;-82
2023/07/18 03:38:55;;;;;;;11.60;7.57;;;11.00;99.90;;;;;;5090731;28;20229;-82
2023/07/18 03:41:25;;;;;;;12.10;7.93;;;11.00;99.90;;;;;;5077933;28;20252;-82
2023/07/18 03:43:52;;;;;;;12.27;7.80;;;11.00;99.90;;;;;;5094259;28;20761;-82
2023/07/18 03:46:19;;;;;;;10.23;7.60;;;11.00;99.90;;;;;;5096051;28;20233;-82
2023/07/18 03:48:46;;;;;;;13.40;7.17;;;11.00;99.90;;;;;;5076599;28;20210;-81
2023/07/18 03:51:14;;;;;;;10.10;6.93;;;11.00;99.90;;;;;;5081883;28;20228;-81
2023/07/18 03:53:40;;;;;;;13.53;8.00;;;11.00;99.90;;;;;;5094809;28;20238;-80
2023/07/18 03:56:08;;;;;;;13.80;7.70;;;11.00;99.90;;;;;;5085696;28;20290;-81
2023/07/18 03:58:35;;;;;;;12.70;7.90;;;11.10;99.90;;;;;;5057562;28;20638;-81
2023/07/18 04:01:07;;;;;;;14.20;7.73;;;11.10;99.90;;;;;;5089550;28;20311;-80
2023/07/18 04:03:33;;;;;;;14.27;8.03;;;11.10;99.90;;;;;;5095898;28;20225;-82
2023/07/18 04:06:00;;;;;;;14.27;8.63;;;11.10;99.90;;;;;;5077305;28;20242;-82
2023/07/18 04:08:27;;;;;;;11.70;8.20;;;11.10;99.90;;;;;;5079162;28;20251;-82
2023/07/18 04:10:54;;;;;;;10.73;7.77;;;11.20;99.90;;;;;;5073195;28;20223;-82
2023/07/18 04:13:22;;;;;;;12.23;8.40;;;11.20;99.90;;;;;;5076608;28;20291;-81
2023/07/18 04:15:49;;;;;;;12.33;8.00;;;11.30;99.90;;;;;;5077318;28;20302;-81
2023/07/18 04:18:16;;;;;;;10.50;7.77;;;11.30;99.90;;;;;;5069877;28;20230;-81
2023/07/18 04:20:43;;;;;;;10.90;7.80;;;11.30;99.90;;;;;;5057348;28;20802;-82
2023/07/18 04:23:10;;;;;;;12.10;8.27;;;11.40;99.90;;;;;;5069548;28;20268;-81
2023/07/18 04:25:55;;;;;;;11.53;8.37;;;11.50;99.90;;;;;;5060640;28;20226;-82
2023/07/18 04:28:23;;;;;;;12.13;7.97;;;11.60;99.90;;;;;;5070744;28;20222;-82
2023/07/18 04:30:50;;;;;;;13.03;8.27;;;11.70;99.90;;;;;;5060899;28;20234;-83
2023/07/18 04:33:17;;;;;;;13.57;8.03;;;11.80;99.90;;;;;;5066445;28;20207;-83
2023/07/18 04:35:45;;;;;;;10.87;8.10;;;11.90;99.90;;;;;;5076369;28;20239;-82
2023/07/18 04:38:12;;;;;;;12.53;7.77;;;12.00;99.90;;;;;;5069785;28;20745;-80
2023/07/18 04:40:39;;;;;;;15.33;8.67;;;12.00;99.90;;;;;;5085686;28;20227;-81
2023/07/18 04:43:06;;;;;;;12.90;8.47;;;12.10;99.90;;;;;;5060847;28;21486;-81
2023/07/18 04:45:34;;;;;;;13.60;7.87;;;12.20;99.90;;;;;;5045719;28;20237;-81
2023/07/18 04:48:00;;;;;;;16.93;9.27;;;12.30;99.90;;;;;;5077703;28;20230;-80
2023/07/18 04:50:29;;;;;;;15.40;9.33;;;12.40;99.90;;;;;;5084028;28;20633;-81
2023/07/18 04:52:55;;;;;;;19.17;9.53;;;12.40;99.90;;;;;;5083765;28;20858;-81
2023/07/18 04:55:22;;;;;;;12.63;8.97;;;12.50;99.90;;;;;;5063823;28;20285;-81
2023/07/18 04:57:49;;;;;;;14.40;8.27;;;12.60;99.90;;;;;;5055967;28;20228;-80
2023/07/18 05:00:17;;;;;;;14.07;9.23;;;12.70;99.90;;;;;;5076574;28;20307;-80
2023/07/18 05:02:45;;;;;;;13.97;8.50;;;12.70;99.90;;;;;;5052438;28;20286;-80
2023/07/18 05:05:13;;;;;;;14.27;8.27;;;12.80;99.90;;;;;;5085147;28;20234;-81
2023/07/18 05:07:44;;;;;;;14.03;8.47;;;12.90;99.90;;;;;;5088725;28;20279;-81
2023/07/18 05:10:11;;;;;;;14.67;8.30;;;12.90;99.90;;;;;;5071168;28;20229;-78
2023/07/18 05:12:38;;;;;;;13.20;8.43;;;13.00;99.90;;;;;;5074679;28;20280;-79
2023/07/18 05:15:06;;;;;;;14.93;9.03;;;13.10;99.90;;;;;;5071010;28;20310;-78
2023/07/18 05:17:33;;;;;;;14.27;8.63;;;13.10;99.90;;;;;;5084460;28;20234;-78
2023/07/18 05:20:01;;;;;;;14.67;8.70;;;13.20;99.90;;;;;;5063533;28;20240;-78
2023/07/18 05:22:28;;;;;;;11.53;7.40;;;13.20;99.90;;;;;;5065370;28;20303;-78
2023/07/18 05:24:55;;;;;;;12.10;8.40;;;13.30;99.90;;;;;;5056311;28;20232;-79
2023/07/18 05:27:22;;;;;;;14.80;8.40;;;13.30;99.90;;;;;;5079531;28;20632;-79
2023/07/18 05:29:49;;;;;;;12.90;8.20;;;13.40;99.90;;;;;;5060779;28;20220;-79
2023/07/18 05:32:16;;;;;;;14.70;9.00;;;13.40;99.90;;;;;;5066114;28;20750;-78
2023/07/18 05:34:43;;;;;;;15.30;8.13;;;13.50;99.90;;;;;;5076504;28;20731;-79
2023/07/18 05:37:11;;;;;;;15.33;8.20;;;13.50;99.90;;;;;;5067113;28;20282;-78
2023/07/18 05:39:38;;;;;;;12.20;8.07;;;13.50;99.90;;;;;;5088486;28;20235;-79
2023/07/18 05:42:05;;;;;;;13.83;8.77;;;13.60;99.90;;;;;;5082304;28;20227;-79
2023/07/18 05:44:32;;;;;;;12.80;8.57;;;13.70;99.90;;;;;;5064718;28;20221;-79
2023/07/18 05:46:59;;;;;;;15.40;8.17;;;13.70;99.90;;;;;;5069471;28;20235;-78
2023/07/18 05:49:26;;;;;;;13.57;8.47;;;13.70;99.90;;;;;;5082712;28;20225;-79
2023/07/18 05:51:53;;;;;;;14.93;8.47;;;13.80;99.90;;;;;;5083035;28;20249;-79
2023/07/18 05:54:22;;;;;;;13.33;8.40;;;13.90;99.90;;;;;;5062320;28;20219;-78
2023/07/18 05:56:49;;;;;;;14.50;8.00;;;13.90;99.90;;;;;;5069708;28;20230;-79
2023/07/18 05:59:15;;;;;;;10.73;7.60;;;14.00;99.90;;;;;;5074733;28;20257;-78
2023/07/18 06:01:42;;;;;;;13.77;7.83;;;14.00;99.90;;;;;;5065755;28;20804;-79
2023/07/18 06:04:10;;;;;;;15.23;7.23;;;14.10;99.90;;;;;;5075110;28;20230;-79
2023/07/18 06:06:38;;;;;;;11.93;7.90;;;14.30;99.90;;;;;;5079207;28;20226;-79
2023/07/18 06:09:05;;;;;;;10.23;6.60;;;14.30;99.90;;;;;;5087527;28;20221;-79
2023/07/18 06:11:33;;;;;;;12.67;6.90;;;14.40;99.90;;;;;;5067760;28;20240;-79
2023/07/18 06:14:00;;;;;;;12.43;6.70;;;14.50;99.90;;;;;;5087489;28;20663;-78
2023/07/18 06:16:28;;;;;;;11.03;6.33;;;14.60;99.90;;;;;;5093741;28;20801;-78
2023/07/18 06:18:54;;;;;;;12.97;6.57;;;14.60;99.90;;;;;;5082603;28;20226;-79
2023/07/18 06:21:21;;;;;;;12.53;6.30;;;14.70;99.90;;;;;;5079701;28;20675;-79
2023/07/18 06:23:49;;;;;;;14.93;6.57;;;14.80;99.90;;;;;;5055971;28;20233;-78
2023/07/18 06:26:16;;;;;;;13.97;5.27;;;14.90;99.90;;;;;;5072982;28;20325;-78
2023/07/18 06:28:44;;;;;;;13.87;5.33;;;15.10;99.90;;;;;;5091987;28;20236;-80
2023/07/18 06:31:12;;;;;;;9.07;4.20;;;15.30;99.90;;;;;;5084361;28;20239;-79
2023/07/18 06:33:39;;;;;;;9.67;4.47;;;15.40;99.90;;;;;;5093587;28;20229;-79
2023/07/18 06:36:07;;;;;;;11.00;4.37;;;15.50;99.90;;;;;;5076385;28;20246;-79
2023/07/18 06:38:33;;;;;;;7.67;4.50;;;15.60;99.90;;;;;;5071528;28;20624;-79
2023/07/18 06:41:00;;;;;;;12.57;5.07;;;15.80;99.90;;;;;;5088869;28;20237;-79
2023/07/18 06:43:27;;;;;;;13.50;5.23;;;15.90;99.90;;;;;;5080397;28;20249;-79
2023/07/18 06:45:55;;;;;;;9.43;4.67;;;16.00;99.90;;;;;;5092179;28;20815;-79
2023/07/18 06:48:22;;;;;;;9.07;4.57;;;16.20;99.90;;;;;;5092286;28;20275;-80
2023/07/18 06:50:50;;;;;;;16.93;4.90;;;16.30;99.90;;;;;;5077437;28;20222;-79
2023/07/18 06:53:19;;;;;;;10.73;4.67;;;16.40;99.90;;;;;;5090125;28;20225;-79
2023/07/18 06:55:46;;;;;;;12.43;5.30;;;16.50;99.90;;;;;;5093489;28;20772;-79
2023/07/18 06:58:12;;;;;;;11.67;4.50;;;16.70;99.90;;;;;;5056046;28;20224;-79
2023/07/18 07:00:40;;;;;;;11.40;4.43;;;16.80;99.90;;;;;;5071286;28;20218;-79
2023/07/18 07:03:09;;;;;;;8.90;4.00;;;17.00;99.90;;;;;;5087256;28;20223;-79
2023/07/18 07:05:37;;;;;;;8.00;3.83;;;17.10;99.90;;;;;;5090998;28;20223;-80
2023/07/18 07:08:03;;;;;;;11.60;4.35;;;17.30;99.90;;;;;;5095249;28;20227;-79
2023/07/18 07:10:30;;;;;;;11.35;3.83;;;17.50;99.90;;;;;;5088326;28;20231;-79
2023/07/18 07:12:57;;;;;;;12.20;4.25;;;17.70;99.90;;;;;;5091450;28;20514;-80
2023/07/18 07:15:23;;;;;;;9.43;4.07;;;17.90;99.90;;;;;;5089021;28;20231;-80
2023/07/18 07:17:50;;;;;;;11.52;4.30;;;18.30;99.90;;;;;;5087166;28;20226;-80
2023/07/18 07:20:19;;;;;;;8.95;3.75;;;18.60;99.90;;;;;;5075930;28;20602;-79
2023/07/18 07:22:47;;;;;;;5.60;3.55;;;19.10;99.90;;;;;;5084442;28;20230;-79
2023/07/18 07:25:14;;;;;;;7.68;3.70;;;19.60;99.90;;;;;;5081440;28;20216;-80
2023/07/18 07:27:44;;;;;;;8.32;3.35;;;20.20;99.90;;;;;;5077115;28;20227;-80
2023/07/18 07:30:15;;;;;;;9.05;3.55;;;20.70;99.90;;;;;;5081679;28;20223;-80
2023/07/18 07:32:42;;;;;;;9.55;3.72;;;21.00;99.90;;;;;;5087952;28;20782;-80
2023/07/18 07:35:09;;;;;;;7.43;3.38;;;21.30;99.90;;;;;;5077941;28;20222;-80
2023/07/18 07:37:40;;;;;;;11.35;3.63;;;21.60;99.90;;;;;;5099823;28;20253;-80
2023/07/18 07:40:09;;;;;;;9.77;3.38;;;21.80;99.90;;;;;;5076123;28;20716;-80
2023/07/18 07:42:37;;;;;;;10.57;3.05;;;22.20;99.90;;;;;;5089405;28;20728;-80
2023/07/18 07:45:04;;;;;;;17.98;3.30;;;22.60;99.90;;;;;;5074848;28;20226;-80
2023/07/18 07:47:31;;;;;;;6.05;3.08;;;23.00;99.90;;;;;;5092764;28;20237;-80
2023/07/18 07:49:58;;;;;;;6.93;2.88;;;23.50;99.90;;;;;;5086170;28;20254;-83
2023/07/18 07:52:24;;;;;;;4.38;2.40;;;23.90;99.90;;;;;;5094529;28;20225;-81
2023/07/18 07:54:52;;;;;;;8.35;2.97;;;24.20;99.90;;;;;;5092943;28;20732;-80
2023/07/18 07:57:19;;;;;;;6.32;2.58;;;24.40;99.90;;;;;;5092865;28;20728;-81
2023/07/18 07:59:46;;;;;;;5.63;2.95;;;24.50;99.90;;;;;;5084819;28;20280;-80
2023/07/18 08:02:14;;;;;;;6.25;2.58;;;24.40;99.90;;;;;;5088427;28;20298;-81
2023/07/18 08:04:41;;;;;;;7.00;2.70;;;24.20;99.90;;;;;;5087759;28;20229;-81
2023/07/18 08:07:08;;;;;;;4.93;2.50;;;24.10;99.90;;;;;;5065209;28;20747;-81
2023/07/18 08:09:36;;;;;;;5.22;2.90;;;24.00;99.90;;;;;;5080913;28;20800;-81
2023/07/18 08:12:05;;;;;;;6.82;3.10;;;23.80;99.80;;;;;;5092074;28;20248;-81
2023/07/18 08:14:32;;;;;;;5.95;2.50;;;23.80;99.90;;;;;;5092219;28;20825;-81
2023/07/18 08:16:59;;;;;;;7.82;3.13;;;23.80;99.90;;;;;;5060050;28;20293;-81
2023/07/18 08:19:27;;;;;;;7.43;2.90;;;23.80;99.90;;;;;;5070380;28;20222;-81
2023/07/18 08:21:53;;;;;;;7.05;2.63;;;23.90;99.80;;;;;;5084383;28;20223;-81
2023/07/18 08:24:21;;;;;;;4.47;2.67;;;24.00;99.60;;;;;;5065282;28;20237;-81
2023/07/18 08:26:48;;;;;;;5.00;2.63;;;24.00;99.40;;;;;;5086746;28;20233;-81
2023/07/18 08:29:16;;;;;;;8.38;2.33;;;24.00;99.30;;;;;;5089002;28;20306;-79
2023/07/18 08:31:43;;;;;;;4.35;2.50;;;24.10;99.80;;;;;;5084221;28;20233;-80
2023/07/18 08:34:10;;;;;;;3.47;2.13;;;24.30;99.50;;;;;;5081621;28;20314;-80
2023/07/18 08:36:36;;;;;;;5.68;2.05;;;24.50;99.10;;;;;;5083306;28;20233;-80
2023/07/18 08:39:03;;;;;;;3.90;1.90;;;24.70;98.00;;;;;;5108998;28;20224;-80
2023/07/18 08:41:30;;;;;;;4.97;1.90;;;24.90;97.40;;;;;;5107238;28;20895;-80
2023/07/18 08:43:59;;;;;;;5.07;2.17;;;25.00;96.50;;;;;;5082436;28;20234;-79
2023/07/18 08:46:27;;;;;;;3.78;2.00;;;25.10;95.40;;;;;;5086154;28;20226;-80
2023/07/18 08:48:54;;;;;;;5.43;1.88;;;25.20;95.90;;;;;;5065581;28;20223;-80
2023/07/18 08:51:22;;;;;;;3.38;1.85;;;25.30;96.20;;;;;;5089465;28;20272;-80
2023/07/18 08:53:48;;;;;;;3.75;1.70;;;25.40;95.90;;;;;;5060933;28;20227;-79
2023/07/18 08:56:15;;;;;;;3.33;1.70;;;25.60;95.40;;;;;;5080750;28;20248;-79
2023/07/18 08:58:42;;;;;;;3.63;1.55;;;25.80;95.30;;;;;;5083857;28;20590;-79
2023/07/18 09:01:09;;;;;;;5.05;2.08;;;26.10;95.30;;;;;;5089982;28;20226;-80
2023/07/18 09:03:37;;;;;;;3.20;1.70;;;26.30;94.70;;;;;;5065821;28;20647;-79
2023/07/18 09:06:04;;;;;;;3.80;1.70;;;26.50;93.40;;;;;;5095548;28;20746;-80
2023/07/18 09:08:40;;;;;;;4.18;1.83;;;26.70;92.80;;;;;;5089882;28;20280;-79
2023/07/18 09:11:07;;;;;;;2.75;1.50;;;26.70;91.60;;;;;;5095154;28;20222;-80
2023/07/18 09:13:38;;;;;;;2.75;1.70;;;26.60;91.60;;;;;;5091282;28;20243;-80
2023/07/18 09:16:12;;;;;;;4.28;1.40;;;26.40;91.20;;;;;;5070758;28;21064;-80
2023/07/18 09:18:44;;;;;;;2.33;1.63;;;26.30;92.90;;;;;;5094812;28;20221;-80
2023/07/18 09:21:11;;;;;;;4.47;1.52;;;26.30;91.60;;;;;;5094156;28;20661;-80
2023/07/18 09:23:40;;;;;;;5.07;1.60;;;26.40;92.20;;;;;;5089910;28;20211;-80
2023/07/18 09:26:09;;;;;;;4.00;1.52;;;26.50;91.70;;;;;;5065671;28;20232;-79
2023/07/18 09:28:36;;;;;;;4.38;1.55;;;26.70;90.70;;;;;;5095529;28;20284;-80
2023/07/18 09:31:03;;;;;;;2.72;1.40;;;26.90;91.30;;;;;;5091618;28;20811;-79
2023/07/18 09:33:31;;;;;;;3.78;1.50;;;27.20;90.90;;;;;;5092987;28;20218;-80
2023/07/18 09:35:59;;;;;;;3.70;1.67;;;27.50;89.90;;;;;;5093470;28;20239;-80
2023/07/18 09:38:27;;;;;;;2.72;1.52;;;27.80;88.10;;;;;;5079339;28;20241;-80
2023/07/18 09:40:55;;;;;;;3.03;1.60;;;28.10;87.40;;;;;;5095471;28;20309;-80
2023/07/18 09:43:24;;;;;;;3.00;1.73;;;28.40;87.80;;;;;;5095524;28;20298;-81
2023/07/18 09:45:53;;;;;;;4.60;1.52;;;28.70;86.90;;;;;;5082926;28;20867;-81
2023/07/18 09:48:20;;;;;;;3.03;1.58;;;29.00;83.40;;;;;;5092468;28;20231;-81
2023/07/18 09:50:51;;;;;;;4.53;1.60;;;29.10;82.00;;;;;;5101735;28;20215;-81
2023/07/18 09:53:23;;;;;;;3.78;1.35;;;29.20;81.40;;;;;;5091971;28;20227;-81
2023/07/18 09:55:53;;;;;;;2.55;1.50;;;29.20;78.70;;;;;;5091273;28;20222;-81
2023/07/18 09:58:25;;;;;;;2.25;1.10;;;29.20;77.10;;;;;;5094874;28;20730;-81
2023/07/18 10:00:53;;;;;;;4.28;1.48;;;29.30;77.40;;;;;;5073987;28;20215;-80
2023/07/18 10:03:21;;;;;;;6.22;1.52;;;29.40;78.20;;;;;;5094392;28;20219;-80
2023/07/18 10:05:48;;;;;;;5.57;1.63;;;29.60;79.50;;;;;;5089894;28;20226;-80
2023/07/18 10:08:15;;;;;;;3.03;1.35;;;29.70;76.30;;;;;;5077877;28;20442;-80
2023/07/18 10:11:00;;;;;;;4.93;1.45;;;29.70;76.90;;;;;;5086963;28;20211;-80
2023/07/18 10:13:26;;;;;;;2.97;1.40;;;29.80;73.40;;;;;;5097707;28;20219;-80
2023/07/18 10:16:19;;;;;;;5.30;1.67;;;30.00;77.00;;;;;;5070502;28;20843;-80
2023/07/18 10:18:46;;;;;;;2.28;1.30;;;30.10;74.20;;;;;;5088596;28;20306;-80
2023/07/18 10:21:14;;;;;;;1.80;1.15;;;30.20;74.10;;;;;;5088872;28;20222;-79
2023/07/18 10:23:42;;;;;;;2.40;1.58;;;30.30;73.30;;;;;;5072952;28;20210;-80
2023/07/18 10:26:10;;;;;;;2.15;1.58;;;30.40;72.70;;;;;;5068396;28;20227;-80
2023/07/18 10:28:44;;;;;;;4.20;1.48;;;30.50;70.10;;;;;;5092657;28;20235;-80
2023/07/18 10:31:26;;;;;;;2.85;1.25;;;30.50;69.00;;;;;;5095053;28;20218;-79
2023/07/18 10:34:10;;;;;;;2.60;1.42;;;30.60;70.50;;;;;;5092732;28;20698;-80
2023/07/18 10:36:37;;;;;;;2.35;1.33;;;30.80;69.10;;;;;;5100523;28;20222;-79
2023/07/18 10:39:09;;;;;;;3.97;1.48;;;31.00;67.90;;;;;;5099061;28;20226;-80
2023/07/18 10:41:38;;;;;;;2.85;1.42;;;31.10;66.60;;;;;;5094125;28;20229;-80
2023/07/18 10:44:04;;;;;;;3.00;1.35;;;31.20;67.60;;;;;;5081386;28;20231;-79
2023/07/18 10:46:38;;;;;;;2.90;1.60;;;31.30;67.90;;;;;;5052637;28;20768;-80
2023/07/18 10:49:05;;;;;;;2.95;1.23;;;31.40;65.50;;;;;;5071157;28;20223;-81
2023/07/18 10:51:32;;;;;;;1.67;1.17;;;31.40;65.60;;;;;;5081195;28;20813;-80
2023/07/18 10:53:59;;;;;;;2.72;1.40;;;31.40;64.60;;;;;;5102155;28;20223;-80
2023/07/18 10:56:27;;;;;;;3.13;1.13;;;31.40;64.90;;;;;;5092386;28;20226;-81
2023/07/18 10:58:56;;;;;;;2.35;1.33;;;31.40;64.10;;;;;;5084363;28;20214;-81
2023/07/18 11:01:25;;;;;;;2.13;1.27;;;31.30;62.40;;;;;;5087764;28;20225;-80
2023/07/18 11:03:52;;;;;;;3.72;1.20;;;31.10;61.80;;;;;;5094132;28;20272;-80
2023/07/18 11:06:21;;;;;;;5.40;1.20;;;31.00;62.00;;;;;;5079819;28;20222;-81
2023/07/18 11:08:48;;;;;;;2.70;1.20;;;30.80;61.70;;;;;;5079618;28;20241;-80
2023/07/18 11:11:18;;;;;;;2.58;1.20;;;30.70;62.30;;;;;;5078254;28;20250;-81
2023/07/18 11:13:44;;;;;;;2.30;1.13;;;30.60;62.30;;;;;;5091030;28;20632;-80
2023/07/18 11:16:14;;;;;;;1.88;1.00;;;30.70;64.30;;;;;;5067997;28;20227;-79
2023/07/18 11:18:44;;;;;;;2.13;1.10;;;30.80;60.70;;;;;;5073121;28;20684;-81
2023/07/18 11:21:12;;;;;;;1.85;1.10;;;30.90;59.90;;;;;;5091919;28;20230;-80
2023/07/18 11:23:40;;;;;;;1.52;0.95;;;30.90;59.60;;;;;;5076261;28;20218;-81
2023/07/18 11:26:12;;;;;;;1.83;1.00;;;30.90;59.50;;;;;;5084354;28;20231;-81
2023/07/18 11:28:40;;;;;;;3.38;1.23;;;31.00;58.70;;;;;;5089615;28;20233;-80
2023/07/18 11:31:18;;;;;;;2.58;1.35;;;30.90;58.00;;;;;;5075444;28;20325;-81
2023/07/18 11:33:50;;;;;;;2.33;1.15;;;30.80;58.00;;;;;;5090118;28;20238;-80
2023/07/18 11:36:17;;;;;;;1.85;0.88;;;30.70;57.60;;;;;;5092951;28;20712;-82
2023/07/18 11:38:44;;;;;;;1.52;1.00;;;30.60;59.10;;;;;;5085899;28;20246;-82
2023/07/18 11:41:14;;;;;;;2.75;1.13;;;30.60;59.40;;;;;;5071289;28;20301;-82
2023/07/18 11:43:41;;;;;;;1.77;1.00;;;30.60;58.80;;;;;;5079868;28;20215;-82
2023/07/18 11:46:08;;;;;;;2.83;0.95;;;30.70;59.30;;;;;;5071830;28;20728;-81
2023/07/18 11:48:35;;;;;;;4.90;1.23;;;30.70;58.30;;;;;;5090623;28;20284;-82
2023/07/18 11:51:04;;;;;;;1.52;0.90;;;30.70;59.00;;;;;;5055117;28;20228;-80
2023/07/18 11:53:32;;;;;;;2.28;0.90;;;30.60;57.90;;;;;;5070485;28;20223;-81
2023/07/18 11:55:59;;;;;;;2.58;0.90;;;30.60;58.00;;;;;;5082233;28;20237;-81
2023/07/18 11:58:26;;;;;;;1.85;0.93;;;30.70;56.90;;;;;;5086215;28;20287;-82
2023/07/18 12:00:58;;;;;;;1.95;0.90;;;30.70;57.60;;;;;;5074434;28;20246;-81
2023/07/18 12:03:25;;;;;;;2.00;0.82;;;30.70;57.00;;;;;;5073121;28;20222;-82
2023/07/18 12:05:52;;;;;;;2.55;1.00;;;30.80;56.10;;;;;;5091147;28;20230;-83
2023/07/18 12:08:20;;;;;;;3.08;0.80;;;30.80;56.70;;;;;;5074313;28;20226;-82
2023/07/18 12:10:47;;;;;;;2.75;1.15;;;30.70;55.80;;;;;;5074383;28;20221;-83
2023/07/18 12:13:14;;;;;;;1.73;0.98;;;30.70;56.10;;;;;;5054696;28;20246;-84
2023/07/18 12:15:40;;;;;;;1.80;0.85;;;30.70;56.70;;;;;;5079134;28;20229;-84
2023/07/18 12:18:07;;;;;;;1.30;0.70;;;30.70;56.80;;;;;;5069683;28;20306;-83
2023/07/18 12:20:34;;;;;;;1.13;0.90;;;30.80;56.50;;;;;;5073361;28;20223;-83
2023/07/18 12:23:01;;;;;;;2.20;1.00;;;30.80;56.30;;;;;;5099715;28;20784;-83
2023/07/18 12:25:31;;;;;;;2.40;0.93;;;30.80;56.00;;;;;;5086731;28;20800;-84
2023/07/18 12:27:59;;;;;;;3.28;1.10;;;30.90;56.40;;;;;;5102852;28;20223;-84
2023/07/18 12:30:26;;;;;;;4.05;1.17;;;30.90;56.20;;;;;;5069878;28;20219;-83
2023/07/18 12:32:53;;;;;;;2.38;1.20;;;31.00;56.10;;;;;;5075779;28;20207;-83
2023/07/18 12:35:20;;;;;;;2.28;1.02;;;31.10;56.20;;;;;;5065473;28;20223;-84
2023/07/18 12:37:47;;;;;;;2.10;1.00;;;31.10;55.90;;;;;;5095171;28;20254;-82
2023/07/18 12:40:17;;;;;;;2.72;0.88;;;31.20;54.60;;;;;;5075492;28;20253;-84
2023/07/18 12:42:45;;;;;;;1.50;0.90;;;31.10;54.00;;;;;;5091142;28;20234;-83
2023/07/18 12:45:12;;;;;;;2.08;0.82;;;30.90;54.00;;;;;;5090197;28;20253;-83
2023/07/18 12:47:39;;;;;;;1.58;0.80;;;30.70;53.90;;;;;;5090416;28;20226;-83